createdAt,value
2023-02-06T00:01:40.359Z,-7.05
2023-02-06T00:04:08.575Z,-7.07
2023-02-06T00:06:36.657Z,-7.11
2023-02-06T00:09:05.327Z,-7.13
2023-02-06T00:11:33.169Z,-7.13
2023-02-06T00:14:01.136Z,-7.22
2023-02-06T00:16:32.283Z,-7.21
2023-02-06T00:19:00.804Z,-7.16
2023-02-06T00:21:29.806Z,-7.24
2023-02-06T00:24:00.099Z,-7.26
2023-02-06T00:26:28.966Z,-7.29
2023-02-06T00:28:57.329Z,-7.26
2023-02-06T00:31:25.886Z,-7.22
2023-02-06T00:33:53.978Z,-7.14
2023-02-06T00:36:21.750Z,-7.02
2023-02-06T00:38:49.808Z,-7.01
2023-02-06T00:41:17.541Z,-7.08
2023-02-06T00:43:45.722Z,-7.11
2023-02-06T00:46:13.430Z,-7.04
2023-02-06T00:48:42.225Z,-6.92
2023-02-06T00:51:10.247Z,-6.77
2023-02-06T00:53:39.087Z,-6.84
2023-02-06T00:56:06.914Z,-6.83
2023-02-06T00:58:34.913Z,-6.89
2023-02-06T01:01:04.256Z,-6.89
2023-02-06T01:03:32.356Z,-6.84
2023-02-06T01:06:00.115Z,-6.89
2023-02-06T01:08:28.598Z,-6.81
2023-02-06T01:10:56.528Z,-6.75
2023-02-06T01:13:24.455Z,-6.76
2023-02-06T01:15:52.318Z,-6.78
2023-02-06T01:18:20.428Z,-6.82
2023-02-06T01:20:48.123Z,-6.87
2023-02-06T01:23:16.140Z,-6.90
2023-02-06T01:25:45.426Z,-6.85
2023-02-06T01:28:13.463Z,-6.80
2023-02-06T01:30:41.228Z,-6.84
2023-02-06T01:33:09.408Z,-6.90
2023-02-06T01:35:38.023Z,-6.90
2023-02-06T01:38:05.920Z,-6.89
2023-02-06T01:40:33.592Z,-6.73
2023-02-06T01:43:02.184Z,-6.78
2023-02-06T01:45:42.908Z,-6.93
2023-02-06T01:48:15.184Z,-6.94
2023-02-06T01:50:46.314Z,-6.92
2023-02-06T01:53:16.350Z,-6.98
2023-02-06T01:55:47.728Z,-6.97
2023-02-06T01:58:33.998Z,-6.94
2023-02-06T02:01:03.253Z,-6.99
2023-02-06T02:03:34.672Z,-7.11
2023-02-06T02:06:12.317Z,-7.07
2023-02-06T02:08:46.426Z,-7.15
2023-02-06T02:11:28.460Z,-7.21
2023-02-06T02:13:56.693Z,-7.19
2023-02-06T02:17:03.323Z,-7.17
2023-02-06T02:20:07.283Z,-7.21
2023-02-06T02:22:43.637Z,-7.23
2023-02-06T02:25:33.396Z,-7.25
2023-02-06T02:28:19.068Z,-7.23
2023-02-06T02:31:05.139Z,-7.29
2023-02-06T02:34:21.345Z,-7.22
2023-02-06T02:37:08.764Z,-7.20
2023-02-06T02:39:59.037Z,-7.27
2023-02-06T02:42:33.951Z,-7.23
2023-02-06T02:45:16.497Z,-7.16
2023-02-06T02:48:06.970Z,-7.10
2023-02-06T02:50:36.523Z,-7.13
2023-02-06T02:53:05.321Z,-7.10
2023-02-06T02:55:33.043Z,-7.11
2023-02-06T02:58:09.044Z,-6.98
2023-02-06T03:00:43.362Z,-6.88
2023-02-06T03:03:14.473Z,-6.96
2023-02-06T03:06:17.894Z,-7.02
2023-02-06T03:08:55.392Z,-7.09
2023-02-06T03:11:24.177Z,-7.00
2023-02-06T03:14:16.325Z,-7.00
2023-02-06T03:16:50.341Z,-7.05
2023-02-06T03:19:33.416Z,-7.12
2023-02-06T03:22:02.608Z,-7.14
2023-02-06T03:24:36.748Z,-7.07
2023-02-06T03:27:11.417Z,-7.06
2023-02-06T03:29:41.727Z,-7.03
2023-02-06T03:32:16.793Z,-7.05
2023-02-06T03:34:51.578Z,-7.08
2023-02-06T03:37:20.651Z,-7.10
2023-02-06T03:39:48.852Z,-7.15
2023-02-06T03:42:17.694Z,-7.14
2023-02-06T03:44:51.731Z,-7.28
2023-02-06T03:47:21.088Z,-7.31
2023-02-06T03:49:51.293Z,-7.39
2023-02-06T03:52:24.535Z,-7.49
2023-02-06T03:55:02.361Z,-7.58
2023-02-06T03:57:32.914Z,-7.56
2023-02-06T04:00:00.928Z,-7.66
2023-02-06T04:02:29.018Z,-7.71
2023-02-06T04:04:57.359Z,-7.67
2023-02-06T04:07:28.044Z,-7.67
2023-02-06T04:09:56.176Z,-7.66
2023-02-06T04:12:24.653Z,-7.74
2023-02-06T04:14:53.270Z,-7.79
2023-02-06T04:17:40.477Z,-7.93
2023-02-06T04:20:09.632Z,-7.93
2023-02-06T04:22:38.284Z,-8.00
2023-02-06T04:25:06.671Z,-8.09
2023-02-06T04:27:34.467Z,-8.17
2023-02-06T04:30:02.477Z,-8.20
2023-02-06T04:32:30.195Z,-8.33
2023-02-06T04:34:58.209Z,-8.35
2023-02-06T04:37:25.834Z,-8.46
2023-02-06T04:39:53.766Z,-8.40
2023-02-06T04:42:21.381Z,-8.29
2023-02-06T04:44:49.292Z,-8.37
2023-02-06T04:47:16.922Z,-8.46
2023-02-06T04:49:44.982Z,-8.53
2023-02-06T04:52:12.643Z,-8.52
2023-02-06T04:54:40.549Z,-8.25
2023-02-06T04:57:08.156Z,-8.31
2023-02-06T04:59:36.110Z,-8.22
2023-02-06T05:02:03.732Z,-8.42
2023-02-06T05:04:31.753Z,-8.61
2023-02-06T05:06:59.385Z,-8.68
2023-02-06T05:09:27.461Z,-8.81
2023-02-06T05:11:55.148Z,-8.87
2023-02-06T05:14:23.237Z,-8.99
2023-02-06T05:16:50.929Z,-9.01
2023-02-06T05:19:18.854Z,-8.74
2023-02-06T05:21:46.506Z,-8.68
2023-02-06T05:24:14.613Z,-8.96
2023-02-06T05:26:42.265Z,-9.11
2023-02-06T05:29:10.353Z,-9.14
2023-02-06T05:31:38.206Z,-9.08
2023-02-06T05:34:06.196Z,-9.13
2023-02-06T05:36:33.892Z,-9.12
2023-02-06T05:39:01.949Z,-9.11
2023-02-06T05:41:29.587Z,-9.08
2023-02-06T05:43:57.546Z,-9.10
2023-02-06T05:46:25.347Z,-9.09
2023-02-06T05:48:53.398Z,-9.11
2023-02-06T05:51:21.056Z,-9.13
2023-02-06T05:53:49.113Z,-9.14
2023-02-06T05:56:16.815Z,-9.24
2023-02-06T05:58:44.828Z,-9.09
2023-02-06T06:01:14.244Z,-9.00
2023-02-06T06:03:42.282Z,-8.90
2023-02-06T06:06:09.957Z,-8.81
2023-02-06T06:08:38.105Z,-8.77
2023-02-06T06:11:07.301Z,-8.78
2023-02-06T06:13:35.332Z,-8.75
2023-02-06T06:16:03.242Z,-8.65
2023-02-06T06:18:31.444Z,-8.64
2023-02-06T06:20:59.301Z,-8.56
2023-02-06T06:23:27.279Z,-8.55
2023-02-06T06:25:54.943Z,-8.43
2023-02-06T06:28:22.975Z,-8.28
2023-02-06T06:30:50.729Z,-8.15
2023-02-06T06:33:19.188Z,-8.06
2023-02-06T06:35:46.819Z,-8.05
2023-02-06T06:38:14.722Z,-7.97
2023-02-06T06:40:42.515Z,-7.95
2023-02-06T06:43:10.404Z,-7.84
2023-02-06T06:45:38.489Z,-7.69
2023-02-06T06:48:06.901Z,-7.56
2023-02-06T06:50:34.753Z,-7.28
2023-02-06T06:53:02.740Z,-6.88
2023-02-06T06:55:30.597Z,-6.38
2023-02-06T06:57:58.613Z,-5.45
2023-02-06T07:00:26.592Z,-5.14
2023-02-06T07:02:54.708Z,-5.15
2023-02-06T07:05:23.280Z,-4.52
2023-02-06T07:07:51.465Z,-4.42
2023-02-06T07:10:19.765Z,-4.24
2023-02-06T07:12:48.229Z,-4.00
2023-02-06T07:15:15.868Z,-4.06
2023-02-06T07:17:43.840Z,-3.91
2023-02-06T07:20:12.181Z,-3.86
2023-02-06T07:22:40.176Z,-3.61
2023-02-06T07:25:08.127Z,-3.41
2023-02-06T07:27:36.140Z,-3.22
2023-02-06T07:30:06.402Z,-2.93
2023-02-06T07:32:38.233Z,-2.54
2023-02-06T07:35:07.008Z,-2.16
2023-02-06T07:37:34.981Z,-2.32
2023-02-06T07:40:02.834Z,-2.25
2023-02-06T07:42:30.899Z,-2.52
2023-02-06T07:45:05.489Z,-2.16
2023-02-06T07:47:33.434Z,-2.14
2023-02-06T07:50:01.117Z,-2.23
2023-02-06T07:52:29.092Z,-2.40
2023-02-06T07:54:56.756Z,-2.35
2023-02-06T07:57:24.853Z,-2.20
2023-02-06T07:59:52.638Z,-2.12
2023-02-06T08:02:20.607Z,-1.77
2023-02-06T08:04:48.299Z,-1.27
2023-02-06T08:07:17.977Z,-1.02
2023-02-06T08:09:46.917Z,-0.72
2023-02-06T08:12:14.967Z,-0.01
2023-02-06T08:14:45.854Z,0.69
2023-02-06T08:17:14.059Z,1.27
2023-02-06T08:19:41.867Z,1.53
2023-02-06T08:22:09.965Z,1.63
2023-02-06T08:24:37.679Z,2.30
2023-02-06T08:27:07.164Z,2.52
2023-02-06T08:29:42.440Z,3.20
2023-02-06T08:32:11.479Z,3.98
2023-02-06T08:34:40.473Z,4.79
2023-02-06T08:37:08.446Z,5.45
2023-02-06T08:39:36.129Z,6.12
2023-02-06T08:42:04.172Z,6.81
2023-02-06T08:44:32.340Z,6.85
2023-02-06T08:47:09.668Z,7.57
2023-02-06T08:49:38.273Z,8.25
2023-02-06T08:52:06.326Z,8.30
2023-02-06T08:54:36.347Z,8.44
2023-02-06T08:57:06.708Z,9.02
2023-02-06T08:59:34.989Z,9.92
2023-02-06T09:02:03.071Z,10.07
2023-02-06T09:04:35.387Z,10.35
2023-02-06T09:07:03.354Z,10.93
2023-02-06T09:09:31.142Z,10.66
2023-02-06T09:12:03.718Z,10.65
2023-02-06T09:14:32.331Z,10.53
2023-02-06T09:17:00.287Z,10.79
2023-02-06T09:19:28.240Z,11.27
2023-02-06T09:21:56.458Z,10.88
2023-02-06T09:24:24.260Z,10.88
2023-02-06T09:26:59.960Z,11.37
2023-02-06T09:29:31.638Z,10.69
2023-02-06T09:32:00.783Z,11.47
2023-02-06T09:34:28.909Z,11.94
2023-02-06T09:36:57.896Z,11.60
2023-02-06T09:39:26.280Z,12.01
2023-02-06T09:42:06.540Z,12.37
2023-02-06T09:44:41.928Z,12.31
2023-02-06T09:47:12.969Z,12.07
2023-02-06T09:49:52.466Z,11.15
2023-02-06T09:52:42.408Z,10.94
2023-02-06T09:55:19.025Z,11.41
2023-02-06T09:57:51.259Z,11.89
2023-02-06T10:00:44.949Z,11.82
2023-02-06T10:03:34.811Z,11.89
2023-02-06T10:06:27.044Z,12.45
2023-02-06T10:09:07.393Z,12.44
2023-02-06T10:11:51.877Z,12.54
2023-02-06T10:14:32.060Z,12.15
2023-02-06T10:17:11.526Z,11.84
2023-02-06T10:20:04.204Z,12.16
2023-02-06T10:22:47.077Z,11.02
2023-02-06T10:25:29.038Z,11.26
2023-02-06T10:28:22.553Z,11.32
2023-02-06T10:31:14.378Z,11.43
2023-02-06T10:33:51.159Z,11.00
2023-02-06T10:36:34.111Z,10.36
2023-02-06T10:39:18.150Z,8.61
2023-02-06T10:42:00.426Z,6.86
2023-02-06T10:44:51.072Z,5.48
2023-02-06T10:47:48.739Z,4.89
2023-02-06T10:50:23.552Z,4.42
2023-02-06T10:52:52.884Z,4.00
2023-02-06T10:55:36.560Z,3.84
2023-02-06T10:58:31.171Z,3.72
2023-02-06T11:01:00.975Z,3.58
2023-02-06T11:03:31.981Z,3.34
2023-02-06T11:06:01.671Z,3.49
2023-02-06T11:08:35.517Z,3.35
2023-02-06T11:11:24.999Z,3.48
2023-02-06T11:14:19.858Z,3.98
2023-02-06T11:16:47.580Z,4.21
2023-02-06T11:19:26.054Z,4.39
2023-02-06T11:22:12.877Z,4.58
2023-02-06T11:25:00.359Z,4.37
2023-02-06T11:27:29.075Z,4.06
2023-02-06T11:30:00.151Z,3.75
2023-02-06T11:32:52.820Z,3.60
2023-02-06T11:35:37.282Z,3.65
2023-02-06T11:38:27.884Z,3.60
2023-02-06T11:41:03.048Z,3.21
2023-02-06T11:43:49.077Z,3.16
2023-02-06T11:46:23.714Z,3.25
2023-02-06T11:48:59.544Z,3.48
2023-02-06T11:51:48.422Z,3.62
2023-02-06T11:54:28.251Z,3.68
2023-02-06T11:57:00.323Z,3.58
2023-02-06T11:59:28.732Z,3.43
2023-02-06T12:01:57.743Z,3.56
2023-02-06T12:04:40.712Z,3.49
2023-02-06T12:07:20.460Z,3.23
2023-02-06T12:09:48.146Z,3.20
2023-02-06T12:12:33.217Z,3.02
2023-02-06T12:15:29.524Z,2.90
2023-02-06T12:18:04.948Z,2.84
2023-02-06T12:20:36.661Z,2.53
2023-02-06T12:23:39.219Z,2.75
2023-02-06T12:26:15.927Z,2.64
2023-02-06T12:29:11.899Z,2.60
2023-02-06T12:31:57.753Z,2.70
2023-02-06T12:34:56.231Z,2.51
2023-02-06T12:37:39.860Z,2.48
2023-02-06T12:40:20.064Z,2.62
2023-02-06T12:43:01.817Z,2.30
2023-02-06T12:45:50.057Z,2.43
2023-02-06T12:48:40.575Z,2.45
2023-02-06T12:51:22.162Z,2.42
2023-02-06T12:53:56.303Z,2.20
2023-02-06T12:56:46.189Z,2.37
2023-02-06T12:59:57.841Z,2.49
2023-02-06T13:02:45.905Z,2.44
2023-02-06T13:05:39.467Z,2.40
2023-02-06T13:08:18.598Z,2.56
2023-02-06T13:11:00.020Z,2.42
2023-02-06T13:13:37.981Z,2.44
2023-02-06T13:16:07.069Z,2.44
2023-02-06T13:18:37.810Z,2.56
2023-02-06T13:21:37.803Z,2.32
2023-02-06T13:24:12.470Z,1.98
2023-02-06T13:27:01.600Z,1.98
2023-02-06T13:29:34.746Z,2.01
2023-02-06T13:32:20.189Z,2.07
2023-02-06T13:34:53.802Z,2.26
2023-02-06T13:37:37.981Z,2.36
2023-02-06T13:40:24.115Z,2.40
2023-02-06T13:42:57.006Z,2.22
2023-02-06T13:45:31.136Z,2.21
2023-02-06T13:48:01.485Z,2.09
2023-02-06T13:50:36.698Z,2.18
2023-02-06T13:53:22.820Z,1.97
2023-02-06T13:56:27.825Z,2.02
2023-02-06T13:58:56.522Z,1.86
2023-02-06T14:01:30.061Z,1.74
2023-02-06T14:03:59.785Z,1.76
2023-02-06T14:06:46.282Z,1.77
2023-02-06T14:09:43.083Z,1.79
2023-02-06T14:12:38.808Z,1.83
2023-02-06T14:15:17.923Z,1.74
2023-02-06T14:18:05.595Z,1.79
2023-02-06T14:21:14.461Z,1.54
2023-02-06T14:24:00.933Z,1.52
2023-02-06T14:26:47.991Z,1.62
2023-02-06T14:29:40.371Z,1.59
2023-02-06T14:32:10.961Z,1.42
2023-02-06T14:34:56.733Z,1.25
2023-02-06T14:37:50.386Z,1.17
2023-02-06T14:40:26.883Z,0.93
2023-02-06T14:42:58.273Z,0.76
2023-02-06T14:45:42.384Z,0.76
2023-02-06T14:48:28.711Z,0.67
2023-02-06T14:50:58.153Z,0.55
2023-02-06T14:53:37.990Z,0.52
2023-02-06T14:56:16.279Z,0.36
2023-02-06T14:58:46.497Z,0.30
2023-02-06T15:01:24.776Z,0.14
2023-02-06T15:04:07.786Z,0.10
2023-02-06T15:06:39.353Z,-0.13
2023-02-06T15:09:08.131Z,-0.29
2023-02-06T15:11:36.141Z,-0.50
2023-02-06T15:14:17.363Z,-0.67
2023-02-06T15:16:47.112Z,-0.78
2023-02-06T15:19:24.910Z,-1.10
2023-02-06T15:22:06.023Z,-1.32
2023-02-06T15:24:33.805Z,-1.42
2023-02-06T15:27:23.523Z,-1.55
2023-02-06T15:29:52.043Z,-1.76
2023-02-06T15:32:32.192Z,-1.91
2023-02-06T15:35:01.530Z,-1.95
2023-02-06T15:37:33.188Z,-2.08
2023-02-06T15:40:18.936Z,-2.19
2023-02-06T15:42:48.802Z,-2.38
2023-02-06T15:45:31.095Z,-2.44
2023-02-06T15:48:07.373Z,-2.48
2023-02-06T15:50:35.407Z,-2.60
2023-02-06T15:53:18.501Z,-2.57
2023-02-06T15:55:56.569Z,-2.41
2023-02-06T15:58:25.964Z,-2.56
2023-02-06T16:00:56.500Z,-2.78
2023-02-06T16:03:27.060Z,-2.87
2023-02-06T16:05:56.546Z,-2.92
2023-02-06T16:08:30.996Z,-3.06
2023-02-06T16:11:05.619Z,-2.87
2023-02-06T16:13:33.718Z,-2.83
2023-02-06T16:16:11.552Z,-2.92
2023-02-06T16:18:40.565Z,-3.08
2023-02-06T16:21:13.125Z,-3.17
2023-02-06T16:24:04.553Z,-3.23
2023-02-06T16:26:48.364Z,-3.25
2023-02-06T16:29:26.622Z,-3.30
2023-02-06T16:32:11.754Z,-3.37
2023-02-06T16:34:42.285Z,-3.44
2023-02-06T16:37:15.379Z,-3.38
2023-02-06T16:39:44.638Z,-3.42
2023-02-06T16:42:15.006Z,-3.38
2023-02-06T16:44:46.506Z,-3.36
2023-02-06T16:47:18.815Z,-3.43
2023-02-06T16:49:52.034Z,-3.45
2023-02-06T16:52:26.539Z,-3.49
2023-02-06T16:54:56.237Z,-3.46
2023-02-06T16:57:30.972Z,-3.53
2023-02-06T16:59:59.336Z,-3.58
2023-02-06T17:02:28.052Z,-3.60
2023-02-06T17:04:56.235Z,-3.58
2023-02-06T17:07:27.338Z,-3.64
2023-02-06T17:09:57.555Z,-3.69
2023-02-06T17:12:25.770Z,-3.82
2023-02-06T17:14:54.291Z,-3.87
2023-02-06T17:17:23.162Z,-3.76
2023-02-06T17:19:52.597Z,-3.86
2023-02-06T17:22:20.896Z,-3.94
2023-02-06T17:24:49.109Z,-4.02
2023-02-06T17:27:20.959Z,-4.00
2023-02-06T17:29:50.462Z,-4.16
2023-02-06T17:32:22.311Z,-4.14
2023-02-06T17:34:54.146Z,-4.17
2023-02-06T17:37:22.026Z,-4.15
2023-02-06T17:39:51.834Z,-4.16
2023-02-06T17:42:21.932Z,-4.14
2023-02-06T17:44:50.574Z,-4.23
2023-02-06T17:47:18.480Z,-4.24
2023-02-06T17:49:47.056Z,-4.36
2023-02-06T17:52:15.195Z,-4.45
2023-02-06T17:54:44.566Z,-4.41
2023-02-06T17:57:13.703Z,-4.40
2023-02-06T17:59:41.709Z,-4.25
2023-02-06T18:02:17.045Z,-4.29
2023-02-06T18:04:48.750Z,-4.19
2023-02-06T18:07:16.463Z,-4.28
2023-02-06T18:09:44.478Z,-4.40
2023-02-06T18:12:12.279Z,-4.37
2023-02-06T18:14:40.650Z,-4.36
2023-02-06T18:17:09.093Z,-4.31
2023-02-06T18:19:42.674Z,-4.24
2023-02-06T18:22:18.635Z,-4.20
2023-02-06T18:24:47.912Z,-4.09
2023-02-06T18:27:16.544Z,-4.23
2023-02-06T18:29:50.107Z,-4.27
2023-02-06T18:32:19.031Z,-4.42
2023-02-06T18:34:47.470Z,-4.32
2023-02-06T18:37:15.402Z,-4.42
2023-02-06T18:39:43.583Z,-4.46
2023-02-06T18:42:30.798Z,-4.54
2023-02-06T18:44:58.944Z,-4.55
2023-02-06T18:47:26.678Z,-4.57
2023-02-06T18:49:54.763Z,-4.63
2023-02-06T18:52:22.612Z,-4.70
2023-02-06T18:54:50.768Z,-4.69
2023-02-06T18:57:18.462Z,-4.75
2023-02-06T18:59:46.395Z,-4.69
2023-02-06T19:02:14.436Z,-4.78
2023-02-06T19:04:42.603Z,-4.84
2023-02-06T19:07:11.733Z,-4.66
2023-02-06T19:09:40.127Z,-4.71
2023-02-06T19:12:08.066Z,-4.82
2023-02-06T19:14:36.126Z,-4.84
2023-02-06T19:17:03.844Z,-4.65
2023-02-06T19:19:31.904Z,-4.84
2023-02-06T19:21:59.581Z,-4.86
2023-02-06T19:24:28.332Z,-4.95
2023-02-06T19:26:58.450Z,-4.84
2023-02-06T19:29:35.069Z,-4.99
2023-02-06T19:32:06.766Z,-5.01
2023-02-06T19:34:36.548Z,-4.77
2023-02-06T19:37:09.416Z,-4.87
2023-02-06T19:39:40.350Z,-4.89
2023-02-06T19:42:10.082Z,-4.95
2023-02-06T19:44:38.283Z,-4.86
2023-02-06T19:47:05.990Z,-4.90
2023-02-06T19:49:34.138Z,-4.92
2023-02-06T19:52:02.016Z,-5.07
2023-02-06T19:54:30.164Z,-5.21
2023-02-06T19:56:58.539Z,-5.25
2023-02-06T19:59:28.628Z,-5.30
2023-02-06T20:02:01.327Z,-5.37
2023-02-06T20:04:34.221Z,-5.40
2023-02-06T20:07:02.664Z,-5.25
2023-02-06T20:09:31.002Z,-5.38
2023-02-06T20:11:59.258Z,-5.34
2023-02-06T20:14:27.999Z,-5.35
2023-02-06T20:16:56.014Z,-5.38
2023-02-06T20:19:27.890Z,-5.27
2023-02-06T20:21:59.058Z,-5.30
2023-02-06T20:24:30.501Z,-5.24
2023-02-06T20:27:01.485Z,-5.28
2023-02-06T20:29:35.005Z,-5.11
2023-02-06T20:32:04.620Z,-5.24
2023-02-06T20:34:33.206Z,-5.33
2023-02-06T20:37:01.421Z,-5.22
2023-02-06T20:39:31.072Z,-5.24
2023-02-06T20:41:59.379Z,-5.37
2023-02-06T20:44:27.529Z,-5.31
2023-02-06T20:46:55.483Z,-5.22
2023-02-06T20:49:26.224Z,-5.22
2023-02-06T20:51:54.770Z,-5.24
2023-02-06T20:54:23.351Z,-5.29
2023-02-06T20:56:51.493Z,-5.16
2023-02-06T20:59:20.545Z,-5.08
2023-02-06T21:01:48.671Z,-5.04
2023-02-06T21:04:18.380Z,-4.84
2023-02-06T21:06:48.564Z,-4.78
2023-02-06T21:09:17.986Z,-4.55
2023-02-06T21:11:49.055Z,-4.53
2023-02-06T21:14:18.322Z,-4.54
2023-02-06T21:16:46.088Z,-4.43
2023-02-06T21:19:16.981Z,-4.48
2023-02-06T21:21:46.347Z,-4.39
2023-02-06T21:24:16.442Z,-4.47
2023-02-06T21:26:44.677Z,-4.64
2023-02-06T21:29:14.575Z,-4.78
2023-02-06T21:31:42.473Z,-4.90
2023-02-06T21:34:20.057Z,-4.95
2023-02-06T21:36:48.494Z,-4.96
2023-02-06T21:39:19.382Z,-5.05
2023-02-06T21:41:51.748Z,-5.02
2023-02-06T21:44:24.466Z,-5.08
2023-02-06T21:46:53.180Z,-4.93
2023-02-06T21:49:21.210Z,-5.02
2023-02-06T21:51:50.308Z,-5.00
2023-02-06T21:54:18.706Z,-4.97
2023-02-06T21:56:46.517Z,-4.92
2023-02-06T21:59:14.468Z,-4.71
2023-02-06T22:01:42.392Z,-4.75
2023-02-06T22:04:11.766Z,-4.78
2023-02-06T22:06:40.107Z,-4.83
2023-02-06T22:09:11.458Z,-4.80
2023-02-06T22:11:40.393Z,-4.78
2023-02-06T22:14:14.135Z,-4.71
2023-02-06T22:16:42.221Z,-4.73
2023-02-06T22:19:11.313Z,-4.85
2023-02-06T22:21:39.337Z,-4.82
2023-02-06T22:24:10.490Z,-4.44
2023-02-06T22:26:39.530Z,-4.29
2023-02-06T22:29:10.682Z,-4.33
2023-02-06T22:31:40.851Z,-4.24
2023-02-06T22:34:13.816Z,-4.17
2023-02-06T22:36:41.954Z,-3.97
2023-02-06T22:39:12.831Z,-3.88
2023-02-06T22:41:45.580Z,-3.83
2023-02-06T22:44:16.737Z,-3.75
2023-02-06T22:46:47.103Z,-3.57
2023-02-06T22:49:15.492Z,-3.65
2023-02-06T22:51:43.619Z,-3.49
2023-02-06T22:54:13.051Z,-3.55
2023-02-06T22:56:42.462Z,-3.41
2023-02-06T22:59:13.746Z,-3.33
2023-02-06T23:01:42.547Z,-3.28
2023-02-06T23:04:16.330Z,-3.21
2023-02-06T23:06:45.102Z,-2.79
2023-02-06T23:09:19.077Z,-2.87
2023-02-06T23:11:47.662Z,-3.15
2023-02-06T23:14:16.806Z,-3.15
2023-02-06T23:16:44.556Z,-2.95
2023-02-06T23:19:14.373Z,-2.87
2023-02-06T23:21:43.812Z,-2.92
2023-02-06T23:24:12.335Z,-2.91
2023-02-06T23:26:42.891Z,-2.80
2023-02-06T23:29:15.805Z,-2.91
2023-02-06T23:31:44.529Z,-2.77
2023-02-06T23:34:13.345Z,-2.80
2023-02-06T23:36:41.263Z,-2.89
2023-02-06T23:39:09.254Z,-2.85
2023-02-06T23:41:36.895Z,-2.80
2023-02-06T23:44:07.469Z,-2.82
2023-02-06T23:46:37.312Z,-2.85
2023-02-06T23:49:06.480Z,-2.77
2023-02-06T23:51:35.141Z,-2.70
2023-02-06T23:54:04.111Z,-2.72
2023-02-06T23:56:32.546Z,-2.55
2023-02-06T23:59:01.836Z,-2.65
